Time;durP1;ratioP1;P1;durP2;ratioP2;P2;SDS_P1;SDS_P2;PMS_P1;PMS_P2;Temp;Humidity;BMP_temperature;BMP_pressure;BME280_temperature;BME280_humidity;BME280_pressure;Samples;Min_cycle;Max_cycle;Signal;HPM_P1;HPM_P2
2022/05/20 00:02:57;;;;;;;;;;;15.70;99.90;;;;;;10541637;27;84103;-48
2022/05/20 00:07:58;;;;;;;;;;;15.70;99.90;;;;;;10542686;27;83621;-48
2022/05/20 00:13:00;;;;;;;;;;;15.70;99.90;;;;;;10542871;27;83818;-48
2022/05/20 00:18:00;;;;;;;;;;;15.60;99.90;;;;;;10541892;27;83807;-48
2022/05/20 00:23:01;;;;;;;;;;;15.60;99.90;;;;;;10543561;27;84141;-48
2022/05/20 00:28:02;;;;;;;;;;;15.50;99.90;;;;;;10542173;27;83943;-48
2022/05/20 00:33:02;;;;;;;;;;;15.50;99.90;;;;;;10539934;27;84185;-52
2022/05/20 00:38:03;;;;;;;;;;;15.50;99.90;;;;;;10538974;27;85160;-51
2022/05/20 00:43:08;;;;;;;;;;;15.40;99.90;;;;;;10558411;27;83711;-47
2022/05/20 00:48:09;;;;;;;;;;;15.30;99.90;;;;;;10584569;27;83861;-53
2022/05/20 00:53:10;;;;;;;;;;;15.30;99.90;;;;;;10563093;27;83259;-50
2022/05/20 00:58:14;;;;;;;;;;;15.20;99.90;;;;;;10539221;27;83753;-49
2022/05/20 01:03:16;;;;;;;;;;;15.20;99.90;;;;;;10558014;27;84176;-49
2022/05/20 01:08:18;;;;;;;;;;;15.20;99.90;;;;;;10581647;27;83618;-52
2022/05/20 01:13:20;;;;;;;;;;;15.10;99.90;;;;;;10561686;27;83204;-47
2022/05/20 01:18:21;;;;;;;;;;;15.00;99.90;;;;;;10536989;27;85985;-47
2022/05/20 01:23:23;;;;;;;;;;;15.00;99.90;;;;;;10556209;27;84211;-52
2022/05/20 01:28:25;;;;;;;;;;;14.90;99.90;;;;;;10580054;27;83331;-46
2022/05/20 01:33:26;;;;;;;;;;;14.90;99.90;;;;;;10572661;27;84093;-48
2022/05/20 01:38:27;;;;;;;;;;;14.90;99.90;;;;;;10536344;27;86085;-47
2022/05/20 01:43:33;;;;;;;;;;;14.80;99.90;;;;;;10543859;27;84136;-49
2022/05/20 01:48:41;;;;;;;;;;;14.70;99.90;;;;;;10580274;27;83622;-47
2022/05/20 01:53:46;;;;;;;;;;;14.60;99.90;;;;;;10569861;27;84084;-47
2022/05/20 01:59:05;;;;;;;;;;;14.60;99.90;;;;;;10538141;27;83931;-47
2022/05/20 02:04:09;;;;;;;;;;;14.50;99.90;;;;;;10548145;27;83733;-47
2022/05/20 02:09:16;;;;;;;;;;;14.40;99.90;;;;;;10578084;27;85231;-46
2022/05/20 02:14:23;;;;;;;;;;;14.40;99.90;;;;;;10564913;27;84153;-47
2022/05/20 02:19:27;;;;;;;;;;;14.30;99.90;;;;;;10536317;27;84151;-47
2022/05/20 02:24:28;;;;;;;;;;;14.30;99.90;;;;;;10551032;27;84106;-47
2022/05/20 02:29:52;;;;;;;;;;;14.30;99.90;;;;;;10579259;27;84472;-50
2022/05/20 02:34:53;;;;;;;;;;;14.30;99.90;;;;;;10557040;27;85736;-50
2022/05/20 02:39:54;;;;;;;;;;;14.20;99.90;;;;;;10535874;27;83782;-49
2022/05/20 02:44:55;;;;;;;;;;;14.20;99.90;;;;;;10545340;27;84322;-48
2022/05/20 02:49:56;;;;;;;;;;;14.20;99.90;;;;;;10491614;27;85241;-50
2022/05/20 02:54:56;;;;;;;;;;;14.20;99.90;;;;;;10530726;27;90054;-47
2022/05/20 03:05:17;;;;;;;;;;;14.10;99.90;;;;;;10557322;27;83733;-51
2022/05/20 03:10:17;;;;;;;;;;;14.20;99.90;;;;;;10536016;27;83292;-47
2022/05/20 03:15:20;;;;;;;;;;;14.10;99.90;;;;;;10540639;27;83911;-49
2022/05/20 03:20:20;;;;;;;;;;;14.20;99.90;;;;;;10585184;27;84067;-47
2022/05/20 03:25:21;;;;;;;;;;;14.30;99.90;;;;;;10584069;27;84300;-50
2022/05/20 03:30:21;;;;;;;;;;;14.50;99.90;;;;;;10501780;27;84019;-48
2022/05/20 03:35:22;;;;;;;;;;;14.40;99.90;;;;;;10543075;27;83877;-50
2022/05/20 03:40:23;;;;;;;;;;;14.50;99.90;;;;;;10584891;27;84033;-47
2022/05/20 03:45:23;;;;;;;;;;;14.50;99.90;;;;;;10561145;27;84326;-51
2022/05/20 03:50:24;;;;;;;;;;;14.50;99.90;;;;;;10542165;27;83350;-48
2022/05/20 03:55:25;;;;;;;;;;;14.40;99.90;;;;;;10563901;27;83666;-46
2022/05/20 04:00:26;;;;;;;;;;;14.40;99.90;;;;;;10584041;27;83916;-47
2022/05/20 04:05:26;;;;;;;;;;;14.30;99.90;;;;;;10561840;27;83759;-48
2022/05/20 04:10:27;;;;;;;;;;;14.40;99.90;;;;;;10541159;27;84062;-48
2022/05/20 04:15:27;;;;;;;;;;;14.40;99.90;;;;;;10562665;27;83657;-47
2022/05/20 04:20:28;;;;;;;;;;;14.30;99.90;;;;;;10584531;27;84128;-47
2022/05/20 04:25:28;;;;;;;;;;;14.40;99.90;;;;;;10538414;27;83947;-50
2022/05/20 04:30:29;;;;;;;;;;;14.40;99.90;;;;;;10560198;27;83920;-49
2022/05/20 04:35:29;;;;;;;;;;;14.40;99.90;;;;;;10561479;27;84115;-51
2022/05/20 04:40:30;;;;;;;;;;;14.50;99.90;;;;;;10564466;27;84666;-48
2022/05/20 04:50:50;;;;;;;;;;;14.50;99.90;;;;;;10515323;27;84686;-55
2022/05/20 04:55:51;;;;;;;;;;;14.50;99.90;;;;;;10483085;27;84126;-54
2022/05/20 05:00:51;;;;;;;;;;;14.50;99.90;;;;;;10473331;27;86159;-51
2022/05/20 05:05:52;;;;;;;;;;;14.70;99.90;;;;;;10472632;27;84139;-51
2022/05/20 05:10:52;;;;;;;;;;;14.80;99.90;;;;;;10473338;27;83252;-54
2022/05/20 05:15:53;;;;;;;;;;;14.80;99.90;;;;;;10472813;27;84002;-52
2022/05/20 05:20:53;;;;;;;;;;;14.90;99.90;;;;;;10471895;27;84173;-56
2022/05/20 05:25:54;;;;;;;;;;;15.00;99.90;;;;;;10469653;27;83409;-52
2022/05/20 05:30:55;;;;;;;;;;;15.10;99.90;;;;;;10469028;27;83225;-54
2022/05/20 05:35:56;;;;;;;;;;;15.20;99.90;;;;;;10467361;27;83487;-54
2022/05/20 05:40:56;;;;;;;;;;;15.20;99.90;;;;;;10480147;27;84203;-54
2022/05/20 05:45:57;;;;;;;;;;;15.30;99.90;;;;;;10475489;27;84032;-54
2022/05/20 05:50:58;;;;;;;;;;;15.40;99.90;;;;;;10503151;27;84125;-56
2022/05/20 05:56:00;;;;;;;;;;;15.60;99.90;;;;;;10473525;27;84110;-57
2022/05/20 06:01:01;;;;;;;;;;;15.80;90.50;;;;;;10483829;27;83450;-53
2022/05/20 06:06:02;;;;;;;;;;;15.70;97.00;;;;;;10451091;27;84032;-52
2022/05/20 06:11:02;;;;;;;;;;;15.80;99.90;;;;;;10458819;27;84600;-58
2022/05/20 06:16:03;;;;;;;;;;;15.90;29.70;;;;;;10450863;28;83824;-60
2022/05/20 06:21:04;;;;;;;;;;;16.10;51.50;;;;;;10454738;27;84103;-54
2022/05/20 06:26:04;;;;;;;;;;;16.10;45.00;;;;;;10479120;27;84097;-55
2022/05/20 06:31:05;;;;;;;;;;;16.10;41.80;;;;;;10474281;27;85244;-57
2022/05/20 06:41:25;;;;;;;;;;;16.40;1.00;;;;;;10461407;27;83460;-56
2022/05/20 06:46:26;;;;;;;;;;;16.60;1.00;;;;;;10468050;27;86605;-54
2022/05/20 06:51:28;;;;;;;;;;;16.80;1.00;;;;;;10474637;27;85343;-56
2022/05/20 06:56:29;;;;;;;;;;;17.00;1.00;;;;;;10501143;27;83750;-55
2022/05/20 07:01:29;;;;;;;;;;;17.20;1.00;;;;;;10499596;27;84088;-53
2022/05/20 07:06:32;;;;;;;;;;;17.50;1.00;;;;;;10497765;27;83709;-55
2022/05/20 07:11:32;;;;;;;;;;;17.80;1.00;;;;;;10496151;27;84249;-52
2022/05/20 07:16:33;;;;;;;;;;;18.00;1.00;;;;;;10486156;27;83494;-60
2022/05/20 07:21:33;;;;;;;;;;;18.90;1.00;;;;;;10475862;27;84089;-55
2022/05/20 07:26:35;;;;;;;;;;;19.30;1.00;;;;;;10479038;27;83363;-55
2022/05/20 07:31:35;;;;;;;;;;;19.70;1.00;;;;;;10475874;27;83293;-55
2022/05/20 07:36:36;;;;;;;;;;;20.20;99.90;;;;;;10491691;27;83226;-57
2022/05/20 07:41:36;;;;;;;;;;;20.90;1.00;;;;;;10496607;27;83400;-53
2022/05/20 07:46:37;;;;;;;;;;;21.20;99.90;;;;;;10498239;27;84113;-55
2022/05/20 07:51:38;;;;;;;;;;;21.50;99.90;;;;;;10491348;27;83462;-56
2022/05/20 07:56:40;;;;;;;;;;;21.90;99.90;;;;;;10479809;27;84141;-55
2022/05/20 08:01:42;;;;;;;;;;;22.40;1.00;;;;;;10475434;27;84125;-59
2022/05/20 08:06:43;;;;;;;;;;;22.30;99.90;;;;;;10460971;27;84164;-57
2022/05/20 08:11:43;;;;;;;;;;;22.60;99.90;;;;;;10489112;27;83251;-57
2022/05/20 08:16:44;;;;;;;;;;;22.80;1.00;;;;;;10455819;27;84087;-56
2022/05/20 08:21:45;;;;;;;;;;;23.40;1.40;;;;;;10455775;28;83316;-54
2022/05/20 08:26:46;;;;;;;;;;;23.30;1.00;;;;;;10476396;27;84116;-57
2022/05/20 08:31:47;;;;;;;;;;;23.70;1.00;;;;;;10474210;27;83208;-54
2022/05/20 08:36:47;;;;;;;;;;;24.00;1.00;;;;;;10487695;27;83474;-55
2022/05/20 08:41:49;;;;;;;;;;;24.40;99.90;;;;;;10475567;27;84107;-52
2022/05/20 08:46:50;;;;;;;;;;;24.80;1.00;;;;;;10473685;27;83386;-54
2022/05/20 08:51:52;;;;;;;;;;;25.30;99.90;;;;;;10492497;27;84584;-55
2022/05/20 08:56:53;;;;;;;;;;;25.40;1.00;;;;;;10470939;27;86209;-52
2022/05/20 09:01:53;;;;;;;;;;;25.70;99.90;;;;;;10481377;27;83522;-54
2022/05/20 09:06:57;;;;;;;;;;;26.20;99.90;;;;;;10486156;27;84151;-53
2022/05/20 09:11:58;;;;;;;;;;;26.40;1.00;;;;;;10470438;27;83539;-56
2022/05/20 09:17:03;;;;;;;;;;;26.80;99.90;;;;;;10479807;27;84610;-52
2022/05/20 09:22:09;;;;;;;;;;;26.80;1.00;;;;;;10489030;27;85852;-46
2022/05/20 09:27:13;;;;;;;;;;;26.80;99.90;;;;;;10471525;27;84376;-50
2022/05/20 09:32:19;;;;;;;;;;;26.70;1.00;;;;;;10472834;27;83687;-53
2022/05/20 09:37:20;;;;;;;;;;;26.60;99.90;;;;;;10483838;27;84092;-50
2022/05/20 09:42:22;;;;;;;;;;;26.20;1.00;;;;;;10467216;27;84171;-55
2022/05/20 09:47:29;;;;;;;;;;;25.60;99.90;;;;;;10468837;27;83176;-51
2022/05/20 09:52:37;;;;;;;;;;;26.40;1.00;;;;;;10474615;27;83404;-52
2022/05/20 09:57:43;;;;;;;;;;;26.80;99.90;;;;;;10471174;27;83923;-48
2022/05/20 10:02:44;;;;;;;;;;;26.60;99.90;;;;;;10483853;27;83831;-54
2022/05/20 10:07:53;;;;;;;;;;;26.50;1.00;;;;;;10473364;27;83336;-56
2022/05/20 10:12:54;;;;;;;;;;;26.00;1.00;;;;;;10480242;27;83464;-54
2022/05/20 10:18:33;;;;;;;;;;;25.70;1.00;;;;;;10479665;27;83599;-55
2022/05/20 10:23:44;;;;;;;;;;;24.70;32.40;;;;;;10461852;27;85213;-54
2022/05/20 10:34:10;;;;;;;;;;;26.60;1.00;;;;;;10496510;27;84026;-58
2022/05/20 10:39:45;;;;;;;;;;;27.50;99.90;;;;;;10477711;27;104039;-55
2022/05/20 10:50:31;;;;;;;;;;;28.20;99.90;;;;;;10403319;28;83973;-51
2022/05/20 10:55:32;;;;;;;;;;;29.00;31.10;;;;;;10410463;28;83949;-53
2022/05/20 11:00:52;;;;;;;;;;;28.90;25.70;;;;;;10407931;28;83980;-52
2022/05/20 11:06:02;;;;;;;;;;;29.50;1.00;;;;;;10407080;28;84228;-53
2022/05/20 11:11:10;;;;;;;;;;;29.50;1.00;;;;;;10397491;28;84256;-52
2022/05/20 11:16:17;;;;;;;;;;;29.40;1.00;;;;;;10403340;28;83413;-50
2022/05/20 11:21:24;;;;;;;;;;;29.50;1.00;;;;;;10376021;28;85172;-52
2022/05/20 11:26:30;;;;;;;;;;;29.50;1.00;;;;;;10397761;28;83450;-51
2022/05/20 11:31:48;;;;;;;;;;;29.40;1.00;;;;;;10383106;28;83707;-57
2022/05/20 11:36:49;;;;;;;;;;;28.50;1.00;;;;;;10403467;28;84536;-57
2022/05/20 11:41:50;;;;;;;;;;;28.30;99.90;;;;;;10410019;28;83424;-55
2022/05/20 11:47:09;;;;;;;;;;;29.30;99.90;;;;;;10394354;28;84096;-57
2022/05/20 11:52:34;;;;;;;;;;;30.10;99.90;;;;;;10401868;28;84084;-58
2022/05/20 11:57:38;;;;;;;;;;;30.60;1.00;;;;;;10412086;28;83533;-54
2022/05/20 12:02:45;;;;;;;;;;;30.50;1.00;;;;;;10414494;28;84247;-55
2022/05/20 12:07:46;;;;;;;;;;;29.80;1.00;;;;;;10414489;28;83268;-56
2022/05/20 12:12:51;;;;;;;;;;;29.70;95.80;;;;;;10414641;28;86094;-54
2022/05/20 12:17:52;;;;;;;;;;;29.70;99.90;;;;;;10413790;28;84119;-56
2022/05/20 12:28:24;;;;;;;;;;;29.90;99.90;;;;;;10401606;28;84112;-55
2022/05/20 12:33:26;;;;;;;;;;;30.60;1.00;;;;;;10405478;28;84120;-54
2022/05/20 12:38:26;;;;;;;;;;;30.40;1.00;;;;;;10404587;28;84370;-56
2022/05/20 12:43:47;;;;;;;;;;;29.80;1.00;;;;;;10400453;28;83424;-51
2022/05/20 12:48:48;;;;;;;;;;;29.80;42.90;;;;;;10385513;28;84008;-54
2022/05/20 12:53:48;;;;;;;;;;;29.10;99.90;;;;;;10380800;28;84343;-53
2022/05/20 12:58:49;;;;;;;;;;;29.40;99.90;;;;;;10386252;28;83355;-54
2022/05/20 13:03:50;;;;;;;;;;;28.30;1.00;;;;;;10410042;28;83572;-55
2022/05/20 13:09:04;;;;;;;;;;;28.10;99.90;;;;;;10390333;28;83503;-53
2022/05/20 13:14:10;;;;;;;;;;;27.80;1.00;;;;;;10383722;28;84639;-51
2022/05/20 13:19:14;;;;;;;;;;;27.20;99.90;;;;;;10383368;28;83419;-54
2022/05/20 13:24:23;;;;;;;;;;;26.60;1.00;;;;;;10380602;28;83423;-54
2022/05/20 13:29:24;;;;;;;;;;;26.30;99.90;;;;;;10379360;28;84704;-50
2022/05/20 13:34:30;;;;;;;;;;;25.60;99.90;;;;;;10376130;28;84026;-52
2022/05/20 13:39:32;;;;;;;;;;;25.40;1.00;;;;;;10372603;28;86177;-53
2022/05/20 13:44:33;;;;;;;;;;;25.00;1.00;;;;;;10378820;28;86171;-52
2022/05/20 13:49:36;;;;;;;;;;;24.60;99.90;;;;;;10388396;28;84099;-50
2022/05/20 13:54:44;;;;;;;;;;;24.30;99.90;;;;;;10371840;28;84121;-51
2022/05/20 13:59:46;;;;;;;;;;;24.30;1.00;;;;;;10368106;28;83462;-53
2022/05/20 14:04:50;;;;;;;;;;;24.10;1.00;;;;;;10379312;28;83937;-53
2022/05/20 14:09:53;;;;;;;;;;;23.80;1.00;;;;;;10404166;28;83621;-54
2022/05/20 14:15:06;;;;;;;;;;;23.50;1.00;;;;;;10380115;28;83247;-54
2022/05/20 14:20:09;;;;;;;;;;;23.30;1.00;;;;;;10376277;28;83342;-52
2022/05/20 14:25:21;;;;;;;;;;;23.00;1.00;;;;;;10369740;28;83973;-51
2022/05/20 14:30:22;;;;;;;;;;;22.50;42.10;;;;;;10401260;28;84035;-56
2022/05/20 14:35:30;;;;;;;;;;;21.90;99.90;;;;;;10408724;28;83524;-56
2022/05/20 14:40:31;;;;;;;;;;;21.50;99.90;;;;;;10408165;28;84017;-55
2022/05/20 14:45:31;;;;;;;;;;;21.10;99.90;;;;;;10406506;28;85851;-54
2022/05/20 14:50:32;;;;;;;;;;;20.90;99.90;;;;;;10403598;28;86796;-56
2022/05/20 14:55:41;;;;;;;;;;;20.90;99.90;;;;;;10405103;28;84139;-50
2022/05/20 15:00:54;;;;;;;;;;;20.90;99.90;;;;;;10405266;28;84334;-53
2022/05/20 15:05:55;;;;;;;;;;;20.80;99.90;;;;;;10406457;28;86306;-51
2022/05/20 15:11:08;;;;;;;;;;;20.80;99.90;;;;;;10408326;28;83451;-51
2022/05/20 15:16:10;;;;;;;;;;;20.90;99.90;;;;;;10407241;28;84526;-51
2022/05/20 15:21:15;;;;;;;;;;;20.90;99.90;;;;;;10413645;28;84426;-51
2022/05/20 15:26:19;;;;;;;;;;;21.00;99.90;;;;;;10412910;28;84230;-54
2022/05/20 15:36:43;;;;;;;;;;;20.80;99.90;;;;;;10409152;28;84062;-54
2022/05/20 15:41:44;;;;;;;;;;;20.90;99.90;;;;;;10387743;28;83472;-52
2022/05/20 15:46:44;;;;;;;;;;;20.80;99.90;;;;;;10390796;28;84029;-52
2022/05/20 15:51:45;;;;;;;;;;;21.00;99.90;;;;;;10368763;28;85973;-49
2022/05/20 15:56:46;;;;;;;;;;;21.00;99.90;;;;;;10387154;28;83839;-52
2022/05/20 16:01:47;;;;;;;;;;;21.10;99.90;;;;;;10387960;28;83306;-51
2022/05/20 16:06:48;;;;;;;;;;;21.00;99.90;;;;;;10390208;28;83332;-49
2022/05/20 16:11:49;;;;;;;;;;;20.90;99.90;;;;;;10397813;28;83872;-52
2022/05/20 16:16:50;;;;;;;;;;;20.80;99.90;;;;;;10401277;28;84330;-52
2022/05/20 16:21:50;;;;;;;;;;;20.80;99.90;;;;;;10410383;28;84283;-52
2022/05/20 16:26:51;;;;;;;;;;;20.90;99.90;;;;;;10408515;28;83424;-51
2022/05/20 16:31:51;;;;;;;;;;;21.10;99.90;;;;;;10379241;28;84247;-51
2022/05/20 16:36:52;;;;;;;;;;;21.30;99.90;;;;;;10374492;28;84142;-52
2022/05/20 16:41:52;;;;;;;;;;;21.30;99.90;;;;;;10383843;28;84331;-56
2022/05/20 16:46:53;;;;;;;;;;;21.60;99.90;;;;;;10502797;22;84002;-56
2022/05/20 16:51:58;;;;;;;;;;;21.70;99.90;;;;;;10502854;27;84379;-59
2022/05/20 17:02:21;;;;;;;;;;;21.20;12.10;;;;;;10498509;27;84935;-57
2022/05/20 17:07:22;;;;;;;;;;;20.90;80.30;;;;;;10493966;27;86616;-59
2022/05/20 17:12:23;;;;;;;;;;;20.80;93.60;;;;;;10494424;27;84928;-54
2022/05/20 17:17:24;;;;;;;;;;;20.80;99.90;;;;;;10502509;27;83472;-57
2022/05/20 17:27:44;;;;;;;;;;;20.80;99.90;;;;;;10518800;27;84191;-55
2022/05/20 17:32:45;;;;;;;;;;;20.70;99.90;;;;;;10495704;27;86343;-57
2022/05/20 17:37:46;;;;;;;;;;;20.60;99.90;;;;;;10499427;27;83668;-57
2022/05/20 17:42:46;;;;;;;;;;;20.30;99.90;;;;;;10515442;27;83975;-64
2022/05/20 17:47:48;;;;;;;;;;;20.20;99.90;;;;;;10533169;27;85877;-61
2022/05/20 17:52:48;;;;;;;;;;;20.30;1.00;;;;;;10520283;27;85089;-59
2022/05/20 17:57:49;;;;;;;;;;;20.00;1.00;;;;;;10533437;27;84071;-58
2022/05/20 18:02:49;;;;;;;;;;;19.60;1.00;;;;;;10536573;27;84162;-59
2022/05/20 18:07:50;;;;;;;;;;;19.50;1.00;;;;;;10535364;27;83487;-60
2022/05/20 18:12:50;;;;;;;;;;;19.30;1.00;;;;;;10536105;27;83445;-60
2022/05/20 18:17:53;;;;;;;;;;;19.00;1.00;;;;;;10527348;27;84150;-59
2022/05/20 18:22:53;;;;;;;;;;;18.50;1.00;;;;;;10529657;27;83838;-58
2022/05/20 18:27:54;;;;;;;;;;;17.90;10.10;;;;;;10528135;27;84264;-56
2022/05/20 18:32:54;;;;;;;;;;;17.30;46.50;;;;;;10529728;27;84085;-55
2022/05/20 18:43:14;;;;;;;;;;;16.70;99.90;;;;;;10527105;27;84017;-57
2022/05/20 18:48:15;;;;;;;;;;;16.40;99.90;;;;;;10530388;27;85727;-52
2022/05/20 18:53:16;;;;;;;;;;;16.20;99.90;;;;;;10522448;27;84165;-63
2022/05/20 18:58:17;;;;;;;;;;;16.00;99.90;;;;;;10535972;27;84623;-56
2022/05/20 19:08:36;;;;;;;;;;;15.90;99.90;;;;;;10525549;27;83402;-64
2022/05/20 19:13:38;;;;;;;;;;;15.90;99.90;;;;;;10531857;27;83988;-59
2022/05/20 19:18:39;;;;;;;;;;;15.90;99.90;;;;;;10524533;27;84207;-58
2022/05/20 19:23:40;;;;;;;;;;;15.70;99.90;;;;;;10534274;27;84024;-56
2022/05/20 19:28:41;;;;;;;;;;;15.70;99.90;;;;;;10532775;27;84256;-67
2022/05/20 19:33:42;;;;;;;;;;;15.50;99.90;;;;;;10526702;27;85255;-59
2022/05/20 19:38:43;;;;;;;;;;;15.60;99.90;;;;;;10533088;27;84522;-60
2022/05/20 19:43:45;;;;;;;;;;;15.60;99.90;;;;;;10521307;27;84066;-55
2022/05/20 19:48:46;;;;;;;;;;;15.60;99.90;;;;;;10531019;27;83420;-58
2022/05/20 19:53:46;;;;;;;;;;;15.70;65.10;;;;;;10532521;27;83426;-58
2022/05/20 20:04:06;;;;;;;;;;;15.70;52.10;;;;;;10536963;27;83632;-58
2022/05/20 20:09:07;;;;;;;;;;;15.70;72.20;;;;;;10533145;27;83496;-54
2022/05/20 20:14:08;;;;;;;;;;;15.60;99.90;;;;;;10519987;27;84066;-56
2022/05/20 20:19:09;;;;;;;;;;;15.70;95.50;;;;;;10529315;27;83967;-51
2022/05/20 20:29:29;;;;;;;;;;;15.60;99.90;;;;;;10528551;27;84024;-54
2022/05/20 20:34:29;;;;;;;;;;;15.50;99.90;;;;;;10529154;27;83436;-56
2022/05/20 20:39:30;;;;;;;;;;;15.50;99.90;;;;;;10529670;27;83803;-57
2022/05/20 20:44:31;;;;;;;;;;;15.50;99.90;;;;;;10520158;27;84603;-53
2022/05/20 20:49:31;;;;;;;;;;;15.40;93.00;;;;;;10522848;27;84156;-58
2022/05/20 20:54:32;;;;;;;;;;;15.30;99.90;;;;;;10529861;27;83360;-58
2022/05/20 20:59:32;;;;;;;;;;;15.30;99.90;;;;;;10521638;27;84250;-54
2022/05/20 21:04:33;;;;;;;;;;;15.30;99.10;;;;;;10516698;27;83985;-57
2022/05/20 21:09:34;;;;;;;;;;;15.20;99.90;;;;;;10511033;27;83304;-52
2022/05/20 21:14:35;;;;;;;;;;;15.20;99.90;;;;;;10519371;27;83372;-55
2022/05/20 21:19:35;;;;;;;;;;;15.10;99.90;;;;;;10519517;27;84167;-58
2022/05/20 21:24:36;;;;;;;;;;;15.00;99.90;;;;;;10513512;27;84088;-56
2022/05/20 21:29:36;;;;;;;;;;;14.90;99.90;;;;;;10514538;27;83356;-57
2022/05/20 21:34:37;;;;;;;;;;;14.80;23.50;;;;;;10511882;27;83839;-56
2022/05/20 21:39:38;;;;;;;;;;;14.70;2.40;;;;;;10508674;27;83401;-51
2022/05/20 21:44:38;;;;;;;;;;;14.60;1.00;;;;;;10518462;27;83436;-57
2022/05/20 21:49:39;;;;;;;;;;;14.70;1.00;;;;;;10536443;27;83440;-57
2022/05/20 21:54:40;;;;;;;;;;;14.70;1.00;;;;;;10536204;27;86189;-58
2022/05/20 21:59:41;;;;;;;;;;;14.60;1.00;;;;;;10537386;27;84039;-56
2022/05/20 22:10:01;;;;;;;;;;;14.40;1.00;;;;;;10536131;27;85008;-55
2022/05/20 22:15:02;;;;;;;;;;;14.30;1.00;;;;;;10536169;27;83322;-55
2022/05/20 22:20:04;;;;;;;;;;;14.30;1.00;;;;;;10536037;27;83403;-53
2022/05/20 22:25:05;;;;;;;;;;;14.10;1.00;;;;;;10536532;27;83353;-56
2022/05/20 22:30:06;;;;;;;;;;;14.20;1.00;;;;;;10535232;27;84037;-55
2022/05/20 22:35:07;;;;;;;;;;;14.20;1.00;;;;;;10536302;27;83864;-53
2022/05/20 22:40:08;;;;;;;;;;;14.20;1.00;;;;;;10535940;27;84407;-52
2022/05/20 22:45:09;;;;;;;;;;;14.30;1.00;;;;;;10511927;22;83762;-50
2022/05/20 22:50:10;;;;;;;;;;;14.20;10.90;;;;;;10410486;28;83974;-49
2022/05/20 23:00:29;;;;;;;;;;;14.00;1.00;;;;;;10409716;28;83621;-50
2022/05/20 23:05:30;;;;;;;;;;;14.00;1.00;;;;;;10408887;28;84204;-56
2022/05/20 23:10:31;;;;;;;;;;;13.90;1.00;;;;;;10410161;28;84141;-49
2022/05/20 23:15:31;;;;;;;;;;;13.90;1.00;;;;;;10409845;28;84187;-49
2022/05/20 23:20:32;;;;;;;;;;;14.00;1.00;;;;;;10391495;28;84151;-48
2022/05/20 23:25:32;;;;;;;;;;;14.00;1.00;;;;;;10408475;28;84240;-55
2022/05/20 23:30:33;;;;;;;;;;;14.00;1.00;;;;;;10411391;28;88374;-53
2022/05/20 23:35:34;;;;;;;;;;;13.90;1.00;;;;;;10395516;28;85969;-54
2022/05/20 23:40:36;;;;;;;;;;;13.90;6.90;;;;;;10405593;28;86163;-53
2022/05/20 23:45:37;;;;;;;;;;;13.80;7.20;;;;;;10415692;28;83437;-52
2022/05/20 23:50:38;;;;;;;;;;;13.70;38.30;;;;;;10416083;28;83269;-51
